sensor_id;sensor_type;location;lat;lon;timestamp;P1;durP1;ratioP1;P2;durP2;ratioP2
3939;SDS011;1984;48.312;9.244;2023-10-31T00:02:24;1.60;;;0.70;;
3939;SDS011;1984;48.312;9.244;2023-10-31T00:04:49;6.97;;;0.77;;
3939;SDS011;1984;48.312;9.244;2023-10-31T00:07:15;0.57;;;0.57;;
3939;SDS011;1984;48.312;9.244;2023-10-31T00:09:40;0.70;;;0.70;;
3939;SDS011;1984;48.312;9.244;2023-10-31T00:12:06;0.80;;;0.80;;
3939;SDS011;1984;48.312;9.244;2023-10-31T00:14:31;0.87;;;0.60;;
3939;SDS011;1984;48.312;9.244;2023-10-31T00:17:00;2.00;;;0.93;;
3939;SDS011;1984;48.312;9.244;2023-10-31T00:19:25;3.27;;;1.10;;
3939;SDS011;1984;48.312;9.244;2023-10-31T00:21:51;1.10;;;1.10;;
3939;SDS011;1984;48.312;9.244;2023-10-31T00:24:17;1.73;;;1.63;;
3939;SDS011;1984;48.312;9.244;2023-10-31T00:26:42;1.63;;;1.53;;
3939;SDS011;1984;48.312;9.244;2023-10-31T00:29:08;1.53;;;1.43;;
3939;SDS011;1984;48.312;9.244;2023-10-31T00:31:33;1.30;;;1.20;;
3939;SDS011;1984;48.312;9.244;2023-10-31T00:34:00;1.50;;;1.50;;
3939;SDS011;1984;48.312;9.244;2023-10-31T00:36:26;0.70;;;0.70;;
3939;SDS011;1984;48.312;9.244;2023-10-31T00:38:52;0.50;;;0.50;;
3939;SDS011;1984;48.312;9.244;2023-10-31T00:41:17;0.70;;;0.70;;
3939;SDS011;1984;48.312;9.244;2023-10-31T00:43:43;1.43;;;0.50;;
3939;SDS011;1984;48.312;9.244;2023-10-31T00:46:08;0.70;;;0.40;;
3939;SDS011;1984;48.312;9.244;2023-10-31T00:48:34;1.67;;;0.60;;
3939;SDS011;1984;48.312;9.244;2023-10-31T00:51:02;0.60;;;0.60;;
3939;SDS011;1984;48.312;9.244;2023-10-31T00:53:28;1.20;;;0.70;;
3939;SDS011;1984;48.312;9.244;2023-10-31T00:55:54;0.67;;;0.50;;
3939;SDS011;1984;48.312;9.244;2023-10-31T00:58:19;0.50;;;0.50;;
3939;SDS011;1984;48.312;9.244;2023-10-31T01:00:45;0.50;;;0.50;;
3939;SDS011;1984;48.312;9.244;2023-10-31T01:03:10;0.70;;;0.50;;
3939;SDS011;1984;48.312;9.244;2023-10-31T01:05:36;0.60;;;0.60;;
3939;SDS011;1984;48.312;9.244;2023-10-31T01:08:01;0.60;;;0.60;;
3939;SDS011;1984;48.312;9.244;2023-10-31T01:10:27;0.60;;;0.60;;
3939;SDS011;1984;48.312;9.244;2023-10-31T01:12:53;0.50;;;0.50;;
3939;SDS011;1984;48.312;9.244;2023-10-31T01:15:18;0.60;;;0.60;;
3939;SDS011;1984;48.312;9.244;2023-10-31T01:17:44;3.90;;;0.60;;
3939;SDS011;1984;48.312;9.244;2023-10-31T01:20:09;0.53;;;0.53;;
3939;SDS011;1984;48.312;9.244;2023-10-31T01:22:35;0.50;;;0.50;;
3939;SDS011;1984;48.312;9.244;2023-10-31T01:25:01;0.60;;;0.60;;
3939;SDS011;1984;48.312;9.244;2023-10-31T01:27:26;0.50;;;0.50;;
3939;SDS011;1984;48.312;9.244;2023-10-31T01:29:52;0.50;;;0.50;;
3939;SDS011;1984;48.312;9.244;2023-10-31T01:32:17;1.33;;;0.60;;
3939;SDS011;1984;48.312;9.244;2023-10-31T01:34:43;0.60;;;0.60;;
3939;SDS011;1984;48.312;9.244;2023-10-31T01:37:08;1.27;;;0.60;;
3939;SDS011;1984;48.312;9.244;2023-10-31T01:39:36;4.00;;;0.70;;
3939;SDS011;1984;48.312;9.244;2023-10-31T01:42:02;0.57;;;0.57;;
3939;SDS011;1984;48.312;9.244;2023-10-31T01:44:27;0.60;;;0.60;;
3939;SDS011;1984;48.312;9.244;2023-10-31T01:46:53;0.67;;;0.67;;
3939;SDS011;1984;48.312;9.244;2023-10-31T01:49:18;0.80;;;0.70;;
3939;SDS011;1984;48.312;9.244;2023-10-31T01:51:44;0.70;;;0.70;;
3939;SDS011;1984;48.312;9.244;2023-10-31T01:54:10;0.90;;;0.70;;
3939;SDS011;1984;48.312;9.244;2023-10-31T01:56:37;0.57;;;0.57;;
3939;SDS011;1984;48.312;9.244;2023-10-31T01:59:04;0.97;;;0.60;;
3939;SDS011;1984;48.312;9.244;2023-10-31T02:01:31;1.03;;;0.70;;
3939;SDS011;1984;48.312;9.244;2023-10-31T02:04:06;0.60;;;0.60;;
3939;SDS011;1984;48.312;9.244;2023-10-31T02:06:31;0.90;;;0.90;;
3939;SDS011;1984;48.312;9.244;2023-10-31T02:08:57;0.63;;;0.63;;
3939;SDS011;1984;48.312;9.244;2023-10-31T02:11:22;0.70;;;0.70;;
3939;SDS011;1984;48.312;9.244;2023-10-31T02:13:48;0.63;;;0.60;;
3939;SDS011;1984;48.312;9.244;2023-10-31T02:16:13;0.60;;;0.60;;
3939;SDS011;1984;48.312;9.244;2023-10-31T02:18:39;0.70;;;0.70;;
3939;SDS011;1984;48.312;9.244;2023-10-31T02:21:04;0.93;;;0.67;;
3939;SDS011;1984;48.312;9.244;2023-10-31T02:23:30;3.40;;;0.70;;
3939;SDS011;1984;48.312;9.244;2023-10-31T02:25:55;0.70;;;0.70;;
3939;SDS011;1984;48.312;9.244;2023-10-31T02:28:22;1.03;;;0.67;;
3939;SDS011;1984;48.312;9.244;2023-10-31T02:30:52;0.73;;;0.70;;
3939;SDS011;1984;48.312;9.244;2023-10-31T02:33:18;1.13;;;1.13;;
3939;SDS011;1984;48.312;9.244;2023-10-31T02:35:43;0.93;;;0.93;;
3939;SDS011;1984;48.312;9.244;2023-10-31T02:38:09;1.07;;;0.83;;
3939;SDS011;1984;48.312;9.244;2023-10-31T02:40:34;0.50;;;0.50;;
3939;SDS011;1984;48.312;9.244;2023-10-31T02:43:00;0.50;;;0.50;;
3939;SDS011;1984;48.312;9.244;2023-10-31T02:45:26;1.00;;;0.60;;
3939;SDS011;1984;48.312;9.244;2023-10-31T02:47:52;0.50;;;0.50;;
3939;SDS011;1984;48.312;9.244;2023-10-31T02:50:17;0.73;;;0.73;;
3939;SDS011;1984;48.312;9.244;2023-10-31T02:52:43;1.07;;;0.73;;
3939;SDS011;1984;48.312;9.244;2023-10-31T02:55:09;1.43;;;0.60;;
3939;SDS011;1984;48.312;9.244;2023-10-31T02:57:34;4.17;;;0.60;;
3939;SDS011;1984;48.312;9.244;2023-10-31T03:00:00;0.60;;;0.60;;
3939;SDS011;1984;48.312;9.244;2023-10-31T03:02:26;0.87;;;0.60;;
3939;SDS011;1984;48.312;9.244;2023-10-31T03:04:51;0.60;;;0.60;;
3939;SDS011;1984;48.312;9.244;2023-10-31T03:07:17;1.03;;;0.70;;
3939;SDS011;1984;48.312;9.244;2023-10-31T03:09:42;2.77;;;0.87;;
3939;SDS011;1984;48.312;9.244;2023-10-31T03:12:08;0.70;;;0.70;;
3939;SDS011;1984;48.312;9.244;2023-10-31T03:14:33;1.37;;;0.80;;
3939;SDS011;1984;48.312;9.244;2023-10-31T03:16:59;1.63;;;0.70;;
3939;SDS011;1984;48.312;9.244;2023-10-31T03:19:24;1.33;;;0.70;;
3939;SDS011;1984;48.312;9.244;2023-10-31T03:21:50;4.10;;;1.37;;
3939;SDS011;1984;48.312;9.244;2023-10-31T03:24:16;0.50;;;0.50;;
3939;SDS011;1984;48.312;9.244;2023-10-31T03:26:41;0.57;;;0.57;;
3939;SDS011;1984;48.312;9.244;2023-10-31T03:29:07;0.70;;;0.70;;
3939;SDS011;1984;48.312;9.244;2023-10-31T03:31:32;0.70;;;0.70;;
3939;SDS011;1984;48.312;9.244;2023-10-31T03:33:58;0.90;;;0.80;;
3939;SDS011;1984;48.312;9.244;2023-10-31T03:36:23;0.90;;;0.90;;
3939;SDS011;1984;48.312;9.244;2023-10-31T03:38:49;1.13;;;1.00;;
3939;SDS011;1984;48.312;9.244;2023-10-31T03:41:14;1.37;;;1.27;;
3939;SDS011;1984;48.312;9.244;2023-10-31T03:43:46;1.00;;;1.00;;
3939;SDS011;1984;48.312;9.244;2023-10-31T03:46:12;3.13;;;1.53;;
3939;SDS011;1984;48.312;9.244;2023-10-31T03:48:37;1.33;;;1.10;;
3939;SDS011;1984;48.312;9.244;2023-10-31T03:51:03;0.90;;;0.90;;
3939;SDS011;1984;48.312;9.244;2023-10-31T03:53:28;1.17;;;1.00;;
3939;SDS011;1984;48.312;9.244;2023-10-31T03:55:54;1.43;;;0.93;;
3939;SDS011;1984;48.312;9.244;2023-10-31T03:58:19;2.10;;;0.97;;
3939;SDS011;1984;48.312;9.244;2023-10-31T04:00:45;0.60;;;0.60;;
3939;SDS011;1984;48.312;9.244;2023-10-31T04:03:10;0.80;;;0.80;;
3939;SDS011;1984;48.312;9.244;2023-10-31T04:05:36;1.30;;;1.17;;
3939;SDS011;1984;48.312;9.244;2023-10-31T04:08:02;0.90;;;0.90;;
3939;SDS011;1984;48.312;9.244;2023-10-31T04:10:28;1.23;;;1.20;;
3939;SDS011;1984;48.312;9.244;2023-10-31T04:12:53;4.10;;;1.57;;
3939;SDS011;1984;48.312;9.244;2023-10-31T04:15:19;1.07;;;1.07;;
3939;SDS011;1984;48.312;9.244;2023-10-31T04:17:44;3.03;;;1.67;;
3939;SDS011;1984;48.312;9.244;2023-10-31T04:20:10;2.17;;;1.10;;
3939;SDS011;1984;48.312;9.244;2023-10-31T04:22:36;3.73;;;1.50;;
3939;SDS011;1984;48.312;9.244;2023-10-31T04:25:01;2.70;;;2.00;;
3939;SDS011;1984;48.312;9.244;2023-10-31T04:27:27;2.40;;;2.20;;
3939;SDS011;1984;48.312;9.244;2023-10-31T04:29:53;1.90;;;1.53;;
3939;SDS011;1984;48.312;9.244;2023-10-31T04:32:18;3.97;;;2.17;;
3939;SDS011;1984;48.312;9.244;2023-10-31T04:34:44;4.90;;;2.80;;
3939;SDS011;1984;48.312;9.244;2023-10-31T04:37:09;7.37;;;3.80;;
3939;SDS011;1984;48.312;9.244;2023-10-31T04:39:35;5.53;;;3.60;;
3939;SDS011;1984;48.312;9.244;2023-10-31T04:42:00;3.60;;;2.10;;
3939;SDS011;1984;48.312;9.244;2023-10-31T04:44:26;3.27;;;1.80;;
3939;SDS011;1984;48.312;9.244;2023-10-31T04:46:51;1.63;;;1.23;;
3939;SDS011;1984;48.312;9.244;2023-10-31T04:49:17;2.07;;;1.87;;
3939;SDS011;1984;48.312;9.244;2023-10-31T04:51:42;1.53;;;1.43;;
3939;SDS011;1984;48.312;9.244;2023-10-31T04:54:08;3.00;;;2.27;;
3939;SDS011;1984;48.312;9.244;2023-10-31T04:56:34;1.73;;;1.63;;
3939;SDS011;1984;48.312;9.244;2023-10-31T04:58:59;2.77;;;1.83;;
3939;SDS011;1984;48.312;9.244;2023-10-31T05:01:25;1.30;;;1.20;;
3939;SDS011;1984;48.312;9.244;2023-10-31T05:03:51;0.80;;;0.80;;
3939;SDS011;1984;48.312;9.244;2023-10-31T05:06:20;0.90;;;0.60;;
3939;SDS011;1984;48.312;9.244;2023-10-31T05:08:46;0.60;;;0.60;;
3939;SDS011;1984;48.312;9.244;2023-10-31T05:11:12;0.80;;;0.50;;
3939;SDS011;1984;48.312;9.244;2023-10-31T05:13:38;0.50;;;0.50;;
3939;SDS011;1984;48.312;9.244;2023-10-31T05:16:04;1.73;;;0.80;;
3939;SDS011;1984;48.312;9.244;2023-10-31T05:18:30;0.50;;;0.50;;
3939;SDS011;1984;48.312;9.244;2023-10-31T05:20:56;1.10;;;0.67;;
3939;SDS011;1984;48.312;9.244;2023-10-31T05:23:21;1.93;;;0.63;;
3939;SDS011;1984;48.312;9.244;2023-10-31T05:25:47;0.70;;;0.70;;
3939;SDS011;1984;48.312;9.244;2023-10-31T05:28:12;0.60;;;0.60;;
3939;SDS011;1984;48.312;9.244;2023-10-31T05:30:38;1.50;;;0.50;;
3939;SDS011;1984;48.312;9.244;2023-10-31T05:33:03;0.50;;;0.50;;
3939;SDS011;1984;48.312;9.244;2023-10-31T05:35:29;0.60;;;0.60;;
3939;SDS011;1984;48.312;9.244;2023-10-31T05:37:54;0.60;;;0.60;;
3939;SDS011;1984;48.312;9.244;2023-10-31T05:40:20;2.83;;;0.60;;
3939;SDS011;1984;48.312;9.244;2023-10-31T05:42:49;0.50;;;0.50;;
3939;SDS011;1984;48.312;9.244;2023-10-31T05:45:15;0.83;;;0.60;;
3939;SDS011;1984;48.312;9.244;2023-10-31T05:47:40;0.80;;;0.80;;
3939;SDS011;1984;48.312;9.244;2023-10-31T05:50:06;1.70;;;0.80;;
3939;SDS011;1984;48.312;9.244;2023-10-31T05:52:32;0.60;;;0.60;;
3939;SDS011;1984;48.312;9.244;2023-10-31T05:54:58;0.60;;;0.60;;
3939;SDS011;1984;48.312;9.244;2023-10-31T05:57:23;0.90;;;0.53;;
3939;SDS011;1984;48.312;9.244;2023-10-31T05:59:49;1.47;;;0.60;;
3939;SDS011;1984;48.312;9.244;2023-10-31T06:02:14;1.80;;;0.60;;
3939;SDS011;1984;48.312;9.244;2023-10-31T06:04:40;0.60;;;0.60;;
3939;SDS011;1984;48.312;9.244;2023-10-31T06:07:06;0.57;;;0.57;;
3939;SDS011;1984;48.312;9.244;2023-10-31T06:09:31;0.70;;;0.60;;
3939;SDS011;1984;48.312;9.244;2023-10-31T06:12:00;0.80;;;0.70;;
3939;SDS011;1984;48.312;9.244;2023-10-31T06:14:26;3.10;;;0.73;;
3939;SDS011;1984;48.312;9.244;2023-10-31T06:16:51;1.13;;;0.80;;
3939;SDS011;1984;48.312;9.244;2023-10-31T06:19:17;0.80;;;0.70;;
3939;SDS011;1984;48.312;9.244;2023-10-31T06:21:43;0.70;;;0.70;;
3939;SDS011;1984;48.312;9.244;2023-10-31T06:24:08;4.20;;;0.70;;
3939;SDS011;1984;48.312;9.244;2023-10-31T06:26:34;1.03;;;0.60;;
3939;SDS011;1984;48.312;9.244;2023-10-31T06:29:00;1.07;;;0.70;;
3939;SDS011;1984;48.312;9.244;2023-10-31T06:31:25;4.33;;;0.60;;
3939;SDS011;1984;48.312;9.244;2023-10-31T06:33:51;3.53;;;0.80;;
3939;SDS011;1984;48.312;9.244;2023-10-31T06:36:17;0.70;;;0.70;;
3939;SDS011;1984;48.312;9.244;2023-10-31T06:38:42;4.07;;;0.83;;
3939;SDS011;1984;48.312;9.244;2023-10-31T06:41:08;1.40;;;0.60;;
3939;SDS011;1984;48.312;9.244;2023-10-31T06:43:33;2.20;;;0.83;;
3939;SDS011;1984;48.312;9.244;2023-10-31T06:45:59;1.63;;;0.70;;
3939;SDS011;1984;48.312;9.244;2023-10-31T06:48:27;1.40;;;0.80;;
3939;SDS011;1984;48.312;9.244;2023-10-31T06:50:52;5.90;;;0.70;;
3939;SDS011;1984;48.312;9.244;2023-10-31T06:53:18;0.70;;;0.70;;
3939;SDS011;1984;48.312;9.244;2023-10-31T06:55:43;0.70;;;0.70;;
3939;SDS011;1984;48.312;9.244;2023-10-31T06:58:09;0.70;;;0.70;;
3939;SDS011;1984;48.312;9.244;2023-10-31T07:00:34;0.93;;;0.60;;
3939;SDS011;1984;48.312;9.244;2023-10-31T07:03:00;5.10;;;0.70;;
3939;SDS011;1984;48.312;9.244;2023-10-31T07:05:31;3.07;;;0.70;;
3939;SDS011;1984;48.312;9.244;2023-10-31T07:07:57;1.40;;;0.80;;
3939;SDS011;1984;48.312;9.244;2023-10-31T07:10:22;4.10;;;0.80;;
3939;SDS011;1984;48.312;9.244;2023-10-31T07:12:48;0.80;;;0.80;;
3939;SDS011;1984;48.312;9.244;2023-10-31T07:15:13;2.73;;;0.90;;
3939;SDS011;1984;48.312;9.244;2023-10-31T07:17:39;2.40;;;1.10;;
3939;SDS011;1984;48.312;9.244;2023-10-31T07:20:05;2.13;;;0.87;;
3939;SDS011;1984;48.312;9.244;2023-10-31T07:22:31;1.87;;;1.10;;
3939;SDS011;1984;48.312;9.244;2023-10-31T07:24:57;1.03;;;1.03;;
3939;SDS011;1984;48.312;9.244;2023-10-31T07:27:24;2.73;;;1.40;;
3939;SDS011;1984;48.312;9.244;2023-10-31T07:29:50;2.87;;;1.63;;
3939;SDS011;1984;48.312;9.244;2023-10-31T07:32:15;2.77;;;1.80;;
3939;SDS011;1984;48.312;9.244;2023-10-31T07:34:41;2.10;;;2.00;;
3939;SDS011;1984;48.312;9.244;2023-10-31T07:37:07;7.70;;;2.47;;
3939;SDS011;1984;48.312;9.244;2023-10-31T07:39:32;3.47;;;1.80;;
3939;SDS011;1984;48.312;9.244;2023-10-31T07:41:58;3.10;;;2.60;;
3939;SDS011;1984;48.312;9.244;2023-10-31T07:44:23;10.23;;;4.87;;
3939;SDS011;1984;48.312;9.244;2023-10-31T07:46:49;6.00;;;4.03;;
3939;SDS011;1984;48.312;9.244;2023-10-31T07:49:15;5.60;;;3.20;;
3939;SDS011;1984;48.312;9.244;2023-10-31T07:51:40;4.80;;;3.10;;
3939;SDS011;1984;48.312;9.244;2023-10-31T07:54:06;4.87;;;3.07;;
3939;SDS011;1984;48.312;9.244;2023-10-31T07:56:31;5.00;;;3.50;;
3939;SDS011;1984;48.312;9.244;2023-10-31T07:58:58;9.30;;;3.30;;
3939;SDS011;1984;48.312;9.244;2023-10-31T08:01:23;2.50;;;2.10;;
3939;SDS011;1984;48.312;9.244;2023-10-31T08:03:49;3.63;;;2.47;;
3939;SDS011;1984;48.312;9.244;2023-10-31T08:06:14;4.17;;;2.63;;
3939;SDS011;1984;48.312;9.244;2023-10-31T08:08:40;3.00;;;2.70;;
3939;SDS011;1984;48.312;9.244;2023-10-31T08:11:09;3.67;;;2.33;;
3939;SDS011;1984;48.312;9.244;2023-10-31T08:13:36;2.40;;;2.20;;
3939;SDS011;1984;48.312;9.244;2023-10-31T08:16:02;4.00;;;2.20;;
3939;SDS011;1984;48.312;9.244;2023-10-31T08:18:31;3.53;;;2.13;;
3939;SDS011;1984;48.312;9.244;2023-10-31T08:20:57;5.40;;;2.13;;
3939;SDS011;1984;48.312;9.244;2023-10-31T08:23:22;2.63;;;1.80;;
3939;SDS011;1984;48.312;9.244;2023-10-31T08:25:48;4.37;;;2.10;;
3939;SDS011;1984;48.312;9.244;2023-10-31T08:28:15;1.80;;;1.70;;
3939;SDS011;1984;48.312;9.244;2023-10-31T08:30:41;1.97;;;1.87;;
3939;SDS011;1984;48.312;9.244;2023-10-31T08:33:06;2.40;;;1.47;;
3939;SDS011;1984;48.312;9.244;2023-10-31T08:35:32;3.20;;;2.03;;
3939;SDS011;1984;48.312;9.244;2023-10-31T08:37:58;2.77;;;1.63;;
3939;SDS011;1984;48.312;9.244;2023-10-31T08:40:23;2.10;;;1.40;;
3939;SDS011;1984;48.312;9.244;2023-10-31T08:42:49;1.70;;;1.00;;
3939;SDS011;1984;48.312;9.244;2023-10-31T08:45:14;1.73;;;1.37;;
3939;SDS011;1984;48.312;9.244;2023-10-31T08:47:40;3.27;;;1.20;;
3939;SDS011;1984;48.312;9.244;2023-10-31T08:50:06;2.40;;;1.63;;
3939;SDS011;1984;48.312;9.244;2023-10-31T08:52:33;4.67;;;1.53;;
3939;SDS011;1984;48.312;9.244;2023-10-31T08:54:59;1.40;;;1.30;;
3939;SDS011;1984;48.312;9.244;2023-10-31T08:57:25;1.37;;;1.27;;
3939;SDS011;1984;48.312;9.244;2023-10-31T08:59:50;1.60;;;1.10;;
3939;SDS011;1984;48.312;9.244;2023-10-31T09:02:16;5.20;;;1.07;;
3939;SDS011;1984;48.312;9.244;2023-10-31T09:04:42;10.23;;;1.50;;
3939;SDS011;1984;48.312;9.244;2023-10-31T09:07:07;2.83;;;1.53;;
3939;SDS011;1984;48.312;9.244;2023-10-31T09:09:33;2.30;;;1.50;;
3939;SDS011;1984;48.312;9.244;2023-10-31T09:11:58;2.20;;;1.23;;
3939;SDS011;1984;48.312;9.244;2023-10-31T09:14:24;2.10;;;1.50;;
3939;SDS011;1984;48.312;9.244;2023-10-31T09:16:49;9.53;;;1.80;;
3939;SDS011;1984;48.312;9.244;2023-10-31T09:19:15;4.60;;;1.43;;
3939;SDS011;1984;48.312;9.244;2023-10-31T09:21:40;2.80;;;1.47;;
3939;SDS011;1984;48.312;9.244;2023-10-31T09:24:06;2.77;;;1.70;;
3939;SDS011;1984;48.312;9.244;2023-10-31T09:26:33;2.60;;;1.37;;
3939;SDS011;1984;48.312;9.244;2023-10-31T09:28:58;5.80;;;1.07;;
3939;SDS011;1984;48.312;9.244;2023-10-31T09:31:24;0.60;;;0.60;;
3939;SDS011;1984;48.312;9.244;2023-10-31T09:33:49;1.13;;;0.90;;
3939;SDS011;1984;48.312;9.244;2023-10-31T09:36:15;3.77;;;1.70;;
3939;SDS011;1984;48.312;9.244;2023-10-31T09:38:41;4.13;;;1.93;;
3939;SDS011;1984;48.312;9.244;2023-10-31T09:41:06;2.60;;;1.13;;
3939;SDS011;1984;48.312;9.244;2023-10-31T09:43:32;1.40;;;1.20;;
3939;SDS011;1984;48.312;9.244;2023-10-31T09:45:58;3.00;;;1.00;;
3939;SDS011;1984;48.312;9.244;2023-10-31T09:48:25;3.33;;;0.90;;
3939;SDS011;1984;48.312;9.244;2023-10-31T09:50:51;3.13;;;1.03;;
3939;SDS011;1984;48.312;9.244;2023-10-31T09:53:18;5.23;;;1.43;;
3939;SDS011;1984;48.312;9.244;2023-10-31T09:55:45;5.27;;;1.37;;
3939;SDS011;1984;48.312;9.244;2023-10-31T09:58:13;3.77;;;1.23;;
3939;SDS011;1984;48.312;9.244;2023-10-31T10:00:39;0.50;;;0.50;;
3939;SDS011;1984;48.312;9.244;2023-10-31T10:03:08;1.43;;;0.90;;
3939;SDS011;1984;48.312;9.244;2023-10-31T10:05:34;1.00;;;0.90;;
3939;SDS011;1984;48.312;9.244;2023-10-31T10:08:00;0.83;;;0.70;;
3939;SDS011;1984;48.312;9.244;2023-10-31T10:10:26;0.80;;;0.80;;
3939;SDS011;1984;48.312;9.244;2023-10-31T10:12:52;1.77;;;0.77;;
3939;SDS011;1984;48.312;9.244;2023-10-31T10:15:18;3.13;;;0.70;;
3939;SDS011;1984;48.312;9.244;2023-10-31T10:17:50;2.20;;;1.20;;
3939;SDS011;1984;48.312;9.244;2023-10-31T10:20:17;2.03;;;1.00;;
3939;SDS011;1984;48.312;9.244;2023-10-31T10:22:43;1.00;;;1.00;;
3939;SDS011;1984;48.312;9.244;2023-10-31T10:25:13;0.97;;;0.87;;
3939;SDS011;1984;48.312;9.244;2023-10-31T10:27:43;3.60;;;1.70;;
3939;SDS011;1984;48.312;9.244;2023-10-31T10:30:10;2.70;;;0.90;;
3939;SDS011;1984;48.312;9.244;2023-10-31T10:32:37;4.50;;;1.20;;
3939;SDS011;1984;48.312;9.244;2023-10-31T10:35:03;1.77;;;1.00;;
3939;SDS011;1984;48.312;9.244;2023-10-31T10:37:29;2.30;;;0.70;;
3939;SDS011;1984;48.312;9.244;2023-10-31T10:39:55;2.40;;;0.90;;
3939;SDS011;1984;48.312;9.244;2023-10-31T10:45:03;2.33;;;0.70;;
3939;SDS011;1984;48.312;9.244;2023-10-31T10:47:33;0.90;;;0.60;;
3939;SDS011;1984;48.312;9.244;2023-10-31T10:50:01;0.50;;;0.50;;
3939;SDS011;1984;48.312;9.244;2023-10-31T10:52:38;0.70;;;0.60;;
3939;SDS011;1984;48.312;9.244;2023-10-31T10:55:13;0.63;;;0.60;;
3939;SDS011;1984;48.312;9.244;2023-10-31T10:57:58;0.60;;;0.50;;
3939;SDS011;1984;48.312;9.244;2023-10-31T11:00:30;0.60;;;0.60;;
3939;SDS011;1984;48.312;9.244;2023-10-31T11:02:56;0.50;;;0.50;;
3939;SDS011;1984;48.312;9.244;2023-10-31T11:05:25;1.40;;;0.50;;
3939;SDS011;1984;48.312;9.244;2023-10-31T11:07:51;0.67;;;0.67;;
3939;SDS011;1984;48.312;9.244;2023-10-31T11:10:17;0.60;;;0.57;;
3939;SDS011;1984;48.312;9.244;2023-10-31T11:12:43;1.27;;;0.60;;
3939;SDS011;1984;48.312;9.244;2023-10-31T11:15:09;1.63;;;0.60;;
3939;SDS011;1984;48.312;9.244;2023-10-31T11:17:39;0.90;;;0.50;;
3939;SDS011;1984;48.312;9.244;2023-10-31T11:20:07;0.90;;;0.60;;
3939;SDS011;1984;48.312;9.244;2023-10-31T11:22:42;0.90;;;0.60;;
3939;SDS011;1984;48.312;9.244;2023-10-31T11:25:09;0.70;;;0.60;;
3939;SDS011;1984;48.312;9.244;2023-10-31T11:27:37;0.50;;;0.50;;
3939;SDS011;1984;48.312;9.244;2023-10-31T11:30:06;2.00;;;1.67;;
3939;SDS011;1984;48.312;9.244;2023-10-31T11:32:51;0.60;;;0.50;;
3939;SDS011;1984;48.312;9.244;2023-10-31T11:35:17;0.50;;;0.50;;
3939;SDS011;1984;48.312;9.244;2023-10-31T11:37:43;0.60;;;0.50;;
3939;SDS011;1984;48.312;9.244;2023-10-31T11:42:41;1.37;;;0.60;;
3939;SDS011;1984;48.312;9.244;2023-10-31T11:45:07;0.63;;;0.50;;
3939;SDS011;1984;48.312;9.244;2023-10-31T11:47:49;1.23;;;0.67;;
3939;SDS011;1984;48.312;9.244;2023-10-31T11:50:16;1.60;;;0.60;;
3939;SDS011;1984;48.312;9.244;2023-10-31T11:52:42;2.33;;;0.60;;
3939;SDS011;1984;48.312;9.244;2023-10-31T11:55:11;2.00;;;1.23;;
3939;SDS011;1984;48.312;9.244;2023-10-31T11:57:40;1.17;;;0.70;;
3939;SDS011;1984;48.312;9.244;2023-10-31T12:00:06;1.27;;;0.70;;
3939;SDS011;1984;48.312;9.244;2023-10-31T12:02:35;0.50;;;0.50;;
3939;SDS011;1984;48.312;9.244;2023-10-31T12:05:07;1.80;;;0.50;;
3939;SDS011;1984;48.312;9.244;2023-10-31T12:07:43;0.40;;;0.40;;
3939;SDS011;1984;48.312;9.244;2023-10-31T12:10:10;1.67;;;0.50;;
3939;SDS011;1984;48.312;9.244;2023-10-31T12:12:36;0.50;;;0.50;;
3939;SDS011;1984;48.312;9.244;2023-10-31T12:15:08;0.77;;;0.77;;
3939;SDS011;1984;48.312;9.244;2023-10-31T12:17:34;0.70;;;0.50;;
3939;SDS011;1984;48.312;9.244;2023-10-31T12:20:07;1.47;;;0.60;;
3939;SDS011;1984;48.312;9.244;2023-10-31T12:22:36;0.63;;;0.60;;
3939;SDS011;1984;48.312;9.244;2023-10-31T12:25:09;0.70;;;0.57;;
3939;SDS011;1984;48.312;9.244;2023-10-31T12:27:45;0.87;;;0.73;;
3939;SDS011;1984;48.312;9.244;2023-10-31T12:30:12;0.60;;;0.60;;
3939;SDS011;1984;48.312;9.244;2023-10-31T12:32:40;0.80;;;0.70;;
3939;SDS011;1984;48.312;9.244;2023-10-31T12:35:07;0.50;;;0.50;;
3939;SDS011;1984;48.312;9.244;2023-10-31T12:37:40;0.60;;;0.60;;
3939;SDS011;1984;48.312;9.244;2023-10-31T12:40:13;0.60;;;0.50;;
3939;SDS011;1984;48.312;9.244;2023-10-31T12:42:42;0.60;;;0.60;;
3939;SDS011;1984;48.312;9.244;2023-10-31T12:45:09;1.30;;;0.80;;
3939;SDS011;1984;48.312;9.244;2023-10-31T12:47:36;5.17;;;0.63;;
3939;SDS011;1984;48.312;9.244;2023-10-31T12:50:05;0.87;;;0.60;;
3939;SDS011;1984;48.312;9.244;2023-10-31T12:52:52;0.63;;;0.63;;
3939;SDS011;1984;48.312;9.244;2023-10-31T12:55:20;4.00;;;1.33;;
3939;SDS011;1984;48.312;9.244;2023-10-31T12:57:47;0.87;;;0.80;;
3939;SDS011;1984;48.312;9.244;2023-10-31T13:00:13;0.60;;;0.60;;
3939;SDS011;1984;48.312;9.244;2023-10-31T13:02:40;0.60;;;0.60;;
3939;SDS011;1984;48.312;9.244;2023-10-31T13:05:13;1.27;;;0.63;;
3939;SDS011;1984;48.312;9.244;2023-10-31T13:07:47;0.57;;;0.57;;
3939;SDS011;1984;48.312;9.244;2023-10-31T13:10:17;0.63;;;0.63;;
3939;SDS011;1984;48.312;9.244;2023-10-31T13:12:44;1.00;;;0.70;;
3939;SDS011;1984;48.312;9.244;2023-10-31T13:15:11;0.60;;;0.60;;
3939;SDS011;1984;48.312;9.244;2023-10-31T13:17:40;0.50;;;0.50;;
3939;SDS011;1984;48.312;9.244;2023-10-31T13:20:09;0.43;;;0.40;;
3939;SDS011;1984;48.312;9.244;2023-10-31T13:22:36;0.77;;;0.70;;
3939;SDS011;1984;48.312;9.244;2023-10-31T13:25:06;0.60;;;0.57;;
3939;SDS011;1984;48.312;9.244;2023-10-31T13:27:34;0.57;;;0.50;;
3939;SDS011;1984;48.312;9.244;2023-10-31T13:30:01;0.80;;;0.60;;
3939;SDS011;1984;48.312;9.244;2023-10-31T13:32:26;0.50;;;0.50;;
3939;SDS011;1984;48.312;9.244;2023-10-31T13:34:52;1.53;;;0.50;;
3939;SDS011;1984;48.312;9.244;2023-10-31T13:37:17;0.60;;;0.60;;
3939;SDS011;1984;48.312;9.244;2023-10-31T13:39:43;0.50;;;0.50;;
3939;SDS011;1984;48.312;9.244;2023-10-31T13:42:08;3.00;;;0.60;;
3939;SDS011;1984;48.312;9.244;2023-10-31T13:44:35;0.40;;;0.40;;
3939;SDS011;1984;48.312;9.244;2023-10-31T13:47:01;1.40;;;0.60;;
3939;SDS011;1984;48.312;9.244;2023-10-31T13:49:27;0.90;;;0.50;;
3939;SDS011;1984;48.312;9.244;2023-10-31T13:51:53;0.50;;;0.50;;
3939;SDS011;1984;48.312;9.244;2023-10-31T13:54:18;1.33;;;0.50;;
3939;SDS011;1984;48.312;9.244;2023-10-31T13:56:44;0.50;;;0.50;;
3939;SDS011;1984;48.312;9.244;2023-10-31T13:59:11;0.50;;;0.50;;
3939;SDS011;1984;48.312;9.244;2023-10-31T14:01:36;1.63;;;0.70;;
3939;SDS011;1984;48.312;9.244;2023-10-31T14:04:02;0.70;;;0.50;;
3939;SDS011;1984;48.312;9.244;2023-10-31T14:06:28;1.00;;;0.60;;
3939;SDS011;1984;48.312;9.244;2023-10-31T14:08:57;0.50;;;0.50;;
3939;SDS011;1984;48.312;9.244;2023-10-31T14:11:23;1.13;;;0.70;;
3939;SDS011;1984;48.312;9.244;2023-10-31T14:13:49;2.40;;;0.90;;
3939;SDS011;1984;48.312;9.244;2023-10-31T14:16:15;0.60;;;0.50;;
3939;SDS011;1984;48.312;9.244;2023-10-31T14:18:41;1.83;;;0.77;;
3939;SDS011;1984;48.312;9.244;2023-10-31T14:21:07;0.70;;;0.70;;
3939;SDS011;1984;48.312;9.244;2023-10-31T14:23:33;1.47;;;0.80;;
3939;SDS011;1984;48.312;9.244;2023-10-31T14:25:59;0.60;;;0.60;;
3939;SDS011;1984;48.312;9.244;2023-10-31T14:28:25;0.83;;;0.70;;
3939;SDS011;1984;48.312;9.244;2023-10-31T14:30:50;2.33;;;0.60;;
3939;SDS011;1984;48.312;9.244;2023-10-31T14:33:17;0.70;;;0.70;;
3939;SDS011;1984;48.312;9.244;2023-10-31T14:35:43;0.80;;;0.63;;
3939;SDS011;1984;48.312;9.244;2023-10-31T14:38:08;0.53;;;0.53;;
3939;SDS011;1984;48.312;9.244;2023-10-31T14:40:34;2.50;;;0.63;;
3939;SDS011;1984;48.312;9.244;2023-10-31T14:42:59;1.00;;;0.90;;
3939;SDS011;1984;48.312;9.244;2023-10-31T14:45:26;1.60;;;1.07;;
3939;SDS011;1984;48.312;9.244;2023-10-31T14:47:51;1.37;;;0.90;;
3939;SDS011;1984;48.312;9.244;2023-10-31T14:50:18;3.50;;;1.33;;
3939;SDS011;1984;48.312;9.244;2023-10-31T14:52:45;1.50;;;1.40;;
3939;SDS011;1984;48.312;9.244;2023-10-31T14:55:12;1.83;;;0.60;;
3939;SDS011;1984;48.312;9.244;2023-10-31T14:57:38;0.80;;;0.80;;
3939;SDS011;1984;48.312;9.244;2023-10-31T15:00:04;2.10;;;1.87;;
3939;SDS011;1984;48.312;9.244;2023-10-31T15:02:31;0.83;;;0.83;;
3939;SDS011;1984;48.312;9.244;2023-10-31T15:04:59;26.67;;;1.43;;
3939;SDS011;1984;48.312;9.244;2023-10-31T15:07:25;0.73;;;0.73;;
3939;SDS011;1984;48.312;9.244;2023-10-31T15:09:50;0.67;;;0.67;;
3939;SDS011;1984;48.312;9.244;2023-10-31T15:12:16;0.50;;;0.40;;
3939;SDS011;1984;48.312;9.244;2023-10-31T15:14:42;0.73;;;0.57;;
3939;SDS011;1984;48.312;9.244;2023-10-31T15:17:08;2.53;;;2.20;;